createdAt,value
2022-09-06T00:01:43.003Z,41.22
2022-09-06T00:04:14.496Z,41.36
2022-09-06T00:06:41.921Z,41.09
2022-09-06T00:09:08.403Z,41.72
2022-09-06T00:11:34.853Z,41.77
2022-09-06T00:14:01.351Z,42.06
2022-09-06T00:16:30.479Z,41.43
2022-09-06T00:18:57.219Z,41.70
2022-09-06T00:21:26.721Z,41.77
2022-09-06T00:23:53.683Z,42.22
2022-09-06T00:26:20.820Z,42.27
2022-09-06T00:28:47.629Z,42.76
2022-09-06T00:31:16.581Z,42.68
2022-09-06T00:33:43.393Z,42.79
2022-09-06T00:36:10.639Z,42.62
2022-09-06T00:38:37.870Z,43.09
2022-09-06T00:41:04.648Z,42.62
2022-09-06T00:43:31.386Z,42.92
2022-09-06T00:45:58.128Z,43.22
2022-09-06T00:48:24.691Z,43.18
2022-09-06T00:50:57.469Z,43.35
2022-09-06T00:53:24.664Z,43.52
2022-09-06T00:55:51.336Z,43.64
2022-09-06T00:58:17.804Z,43.68
2022-09-06T01:00:47.251Z,44.09
2022-09-06T01:03:14.322Z,43.82
2022-09-06T01:06:04.867Z,44.01
2022-09-06T01:08:34.482Z,44.81
2022-09-06T01:11:00.981Z,44.64
2022-09-06T01:13:31.127Z,44.80
2022-09-06T01:15:57.682Z,44.56
2022-09-06T01:18:36.388Z,45.15
2022-09-06T01:21:02.851Z,45.07
2022-09-06T01:23:43.816Z,44.75
2022-09-06T01:26:10.314Z,45.39
2022-09-06T01:28:44.279Z,44.86
2022-09-06T01:31:11.110Z,44.14
2022-09-06T01:33:48.490Z,43.57
2022-09-06T01:36:17.131Z,43.63
2022-09-06T01:38:44.008Z,43.07
2022-09-06T01:41:10.587Z,43.20
2022-09-06T01:43:39.420Z,42.86
2022-09-06T01:46:21.424Z,42.70
2022-09-06T01:49:11.043Z,43.45
2022-09-06T01:51:55.478Z,43.32
2022-09-06T01:54:44.700Z,43.84
2022-09-06T01:57:23.498Z,44.04
2022-09-06T01:59:50.040Z,44.68
2022-09-06T02:02:19.580Z,45.16
2022-09-06T02:04:58.336Z,46.42
2022-09-06T02:07:26.474Z,46.51
2022-09-06T02:10:00.400Z,46.75
2022-09-06T02:12:29.777Z,46.53
2022-09-06T02:14:58.840Z,47.03
2022-09-06T02:17:28.099Z,47.19
2022-09-06T02:20:09.704Z,47.67
2022-09-06T02:22:39.709Z,48.03
2022-09-06T02:25:08.551Z,47.59
2022-09-06T02:27:35.644Z,48.10
2022-09-06T02:30:03.100Z,48.03
2022-09-06T02:32:30.520Z,48.42
2022-09-06T02:34:57.611Z,48.36
2022-09-06T02:37:26.119Z,47.78
2022-09-06T02:39:55.321Z,47.65
2022-09-06T02:42:22.629Z,47.86
2022-09-06T02:44:49.403Z,48.09
2022-09-06T02:47:16.744Z,47.89
2022-09-06T02:49:43.256Z,48.06
2022-09-06T02:52:09.745Z,48.24
2022-09-06T02:54:36.269Z,48.32
2022-09-06T02:57:02.822Z,48.60
2022-09-06T02:59:29.417Z,49.22
2022-09-06T03:01:56.043Z,49.29
2022-09-06T03:04:22.594Z,49.25
2022-09-06T03:06:49.155Z,49.14
2022-09-06T03:09:15.726Z,49.06
2022-09-06T03:11:42.265Z,48.85
2022-09-06T03:14:08.843Z,49.26
2022-09-06T03:16:37.014Z,51.71
2022-09-06T03:19:03.621Z,53.01
2022-09-06T03:21:30.173Z,54.05
2022-09-06T03:23:56.695Z,54.50
2022-09-06T03:26:23.320Z,54.87
2022-09-06T03:28:50.424Z,54.57
2022-09-06T03:31:17.249Z,54.31
2022-09-06T03:33:43.799Z,54.57
2022-09-06T03:36:10.404Z,55.01
2022-09-06T03:38:37.260Z,54.53
2022-09-06T03:41:03.978Z,55.75
2022-09-06T03:43:32.039Z,55.96
2022-09-06T03:45:58.663Z,55.96
2022-09-06T03:48:26.742Z,55.66
2022-09-06T03:50:54.582Z,56.00
2022-09-06T03:53:21.677Z,55.41
2022-09-06T03:55:49.590Z,55.35
2022-09-06T03:58:17.407Z,55.67
2022-09-06T04:00:44.517Z,55.92
2022-09-06T04:03:11.355Z,55.95
2022-09-06T04:05:38.014Z,55.69
2022-09-06T04:08:05.888Z,56.19
2022-09-06T04:10:32.856Z,56.73
2022-09-06T04:12:59.338Z,56.99
2022-09-06T04:15:25.886Z,57.14
2022-09-06T04:17:52.486Z,57.34
2022-09-06T04:20:19.029Z,56.96
2022-09-06T04:22:45.607Z,56.86
2022-09-06T04:25:13.767Z,56.97
2022-09-06T04:27:40.284Z,56.84
2022-09-06T04:30:07.478Z,56.81
2022-09-06T04:32:34.050Z,56.31
2022-09-06T04:35:00.547Z,55.87
2022-09-06T04:37:27.169Z,55.84
2022-09-06T04:39:54.280Z,55.33
2022-09-06T04:42:21.007Z,55.26
2022-09-06T04:44:47.582Z,55.54
2022-09-06T04:47:15.358Z,55.27
2022-09-06T04:49:42.398Z,54.72
2022-09-06T04:52:09.547Z,54.42
2022-09-06T04:54:36.112Z,54.48
2022-09-06T04:57:03.225Z,54.53
2022-09-06T04:59:29.736Z,54.65
2022-09-06T05:01:56.290Z,54.82
2022-09-06T05:04:22.982Z,55.00
2022-09-06T05:06:49.522Z,55.27
2022-09-06T05:12:56.012Z,55.62
2022-09-06T05:15:23.315Z,56.29
2022-09-06T05:17:49.890Z,56.42
2022-09-06T05:20:16.416Z,56.25
2022-09-06T05:22:43.194Z,56.85
2022-09-06T05:25:10.434Z,56.33
2022-09-06T05:27:36.995Z,56.45
2022-09-06T05:30:04.181Z,56.19
2022-09-06T05:32:30.639Z,55.94
2022-09-06T05:34:57.125Z,55.45
2022-09-06T05:37:23.755Z,55.77
2022-09-06T05:39:50.279Z,55.90
2022-09-06T05:42:19.259Z,55.53
2022-09-06T05:44:46.045Z,55.58
2022-09-06T05:47:12.590Z,55.17
2022-09-06T05:49:39.152Z,54.76
2022-09-06T05:52:05.643Z,54.83
2022-09-06T05:54:32.142Z,55.23
2022-09-06T05:56:58.679Z,54.60
2022-09-06T05:59:25.149Z,54.76
2022-09-06T06:01:52.507Z,54.49
2022-09-06T06:04:19.804Z,54.94
2022-09-06T06:06:46.921Z,55.42
2022-09-06T06:09:13.982Z,55.46
2022-09-06T06:11:41.058Z,55.89
2022-09-06T06:14:07.904Z,56.20
2022-09-06T06:16:34.532Z,56.17
2022-09-06T06:19:01.147Z,55.76
2022-09-06T06:21:28.815Z,54.56
2022-09-06T06:23:56.404Z,54.64
2022-09-06T06:26:23.474Z,54.29
2022-09-06T06:28:50.098Z,53.62
2022-09-06T06:31:16.647Z,52.70
2022-09-06T06:33:44.122Z,53.34
2022-09-06T06:36:13.644Z,53.35
2022-09-06T06:38:43.317Z,53.84
2022-09-06T06:41:12.553Z,54.22
2022-09-06T06:43:39.499Z,53.80
2022-09-06T06:46:10.328Z,53.60
2022-09-06T06:48:37.849Z,54.01
2022-09-06T06:51:04.391Z,52.92
2022-09-06T06:53:30.997Z,52.12
2022-09-06T06:55:57.517Z,51.48
2022-09-06T06:58:24.100Z,51.64
2022-09-06T07:00:50.778Z,52.02
2022-09-06T07:03:18.256Z,51.64
2022-09-06T07:08:33.573Z,51.08
2022-09-06T07:11:00.399Z,50.95
2022-09-06T07:13:27.101Z,51.53
2022-09-06T07:16:06.108Z,51.14
2022-09-06T07:18:32.886Z,50.67
2022-09-06T07:26:32.995Z,49.50
2022-09-06T07:29:00.715Z,49.16
2022-09-06T07:34:14.798Z,48.20
2022-09-06T07:36:41.350Z,47.10
2022-09-06T07:39:07.817Z,46.27
2022-09-06T07:41:34.467Z,46.83
2022-09-06T07:44:01.297Z,46.37
2022-09-06T07:46:28.083Z,44.34
2022-09-06T07:48:54.648Z,45.33
2022-09-06T07:51:21.727Z,44.89
2022-09-06T07:53:57.902Z,44.97
2022-09-06T07:56:34.073Z,45.50
2022-09-06T07:59:00.578Z,45.29
2022-09-06T08:01:28.204Z,44.34
2022-09-06T08:03:55.088Z,43.15
2022-09-06T08:06:22.808Z,42.37
2022-09-06T08:11:24.635Z,44.02
2022-09-06T08:13:52.043Z,44.22
2022-09-06T08:16:20.062Z,43.56
2022-09-06T08:18:50.465Z,44.12
2022-09-06T08:21:17.065Z,44.04
2022-09-06T08:23:48.565Z,43.76
2022-09-06T08:26:16.117Z,45.43
2022-09-06T08:28:42.843Z,46.16
2022-09-06T08:31:13.904Z,46.41
2022-09-06T08:33:40.820Z,46.58
2022-09-06T08:36:08.031Z,46.65
2022-09-06T08:38:35.296Z,46.77
2022-09-06T08:41:11.504Z,45.74
2022-09-06T08:43:38.739Z,46.16
2022-09-06T08:46:07.006Z,45.53
2022-09-06T08:48:37.010Z,45.59
2022-09-06T08:51:21.756Z,45.33
2022-09-06T08:53:48.225Z,43.52
2022-09-06T08:56:22.213Z,42.81
2022-09-06T08:58:52.026Z,39.93
2022-09-06T09:01:23.066Z,32.36
2022-09-06T09:03:50.171Z,25.73
2022-09-06T09:06:16.673Z,21.74
2022-09-06T09:09:05.439Z,20.64
2022-09-06T09:11:33.609Z,19.08
2022-09-06T09:14:12.247Z,17.27
2022-09-06T09:16:39.115Z,17.46
2022-09-06T09:19:06.449Z,17.40
2022-09-06T09:21:42.096Z,14.89
2022-09-06T09:24:10.377Z,15.13
2022-09-06T09:26:57.121Z,15.58
2022-09-06T09:29:28.054Z,16.36
2022-09-06T09:31:56.462Z,14.76
2022-09-06T09:34:29.374Z,13.52
2022-09-06T09:40:01.254Z,12.51
2022-09-06T09:42:33.143Z,12.08
2022-09-06T09:45:00.043Z,12.21
2022-09-06T09:47:47.816Z,10.97
2022-09-06T09:50:28.283Z,10.63
2022-09-06T09:52:55.121Z,11.66
2022-09-06T09:55:23.723Z,12.02
2022-09-06T09:57:51.051Z,12.99
2022-09-06T10:00:43.079Z,13.75
2022-09-06T10:03:25.045Z,12.77
2022-09-06T10:06:02.510Z,11.26
2022-09-06T10:08:31.132Z,10.49
2022-09-06T10:10:58.107Z,9.75
2022-09-06T10:13:29.720Z,9.29
2022-09-06T10:15:58.685Z,8.68
2022-09-06T10:18:28.867Z,8.29
2022-09-06T10:20:58.150Z,8.34
2022-09-06T10:26:25.834Z,8.16
2022-09-06T10:29:00.097Z,8.23
2022-09-06T10:31:36.284Z,7.86
2022-09-06T10:34:03.033Z,7.97
2022-09-06T10:36:35.181Z,7.72
2022-09-06T10:39:15.045Z,9.45
2022-09-06T10:41:41.622Z,9.64
2022-09-06T10:44:17.142Z,8.58
2022-09-06T10:46:44.817Z,7.71
2022-09-06T10:49:14.631Z,7.95
2022-09-06T10:51:50.191Z,7.24
2022-09-06T10:54:19.648Z,7.85
2022-09-06T10:56:55.852Z,7.73
2022-09-06T11:02:08.746Z,7.33
2022-09-06T11:07:26.871Z,6.62
2022-09-06T11:09:57.620Z,6.93
2022-09-06T11:12:27.222Z,6.97
2022-09-06T11:14:54.233Z,8.18
2022-09-06T11:17:30.972Z,8.55
2022-09-06T11:20:13.152Z,8.24
2022-09-06T11:22:52.934Z,8.08
2022-09-06T11:25:38.315Z,8.88
2022-09-06T11:28:08.757Z,9.34
2022-09-06T11:30:35.424Z,9.29
2022-09-06T11:33:13.529Z,9.66
2022-09-06T11:35:41.145Z,10.13
2022-09-06T11:38:17.031Z,9.08
2022-09-06T11:40:45.360Z,8.72
2022-09-06T11:43:15.721Z,8.78
2022-09-06T11:45:42.335Z,7.85
2022-09-06T11:48:24.146Z,8.40
2022-09-06T11:50:53.719Z,9.00
2022-09-06T11:53:23.983Z,9.33
2022-09-06T11:56:09.369Z,10.24
2022-09-06T11:58:41.946Z,11.22
2022-09-06T12:01:28.703Z,11.90
2022-09-06T12:04:06.940Z,11.04
2022-09-06T12:06:41.333Z,11.61
2022-09-06T12:09:26.772Z,12.43
2022-09-06T12:11:53.530Z,13.72
2022-09-06T12:14:34.481Z,14.23
2022-09-06T12:17:01.402Z,13.67
2022-09-06T12:19:49.578Z,13.17
2022-09-06T12:22:37.426Z,13.70
2022-09-06T12:25:22.481Z,15.90
2022-09-06T12:27:56.268Z,18.07
2022-09-06T12:30:37.375Z,19.40
2022-09-06T12:33:22.865Z,21.13
2022-09-06T12:35:57.433Z,21.70
2022-09-06T12:38:25.146Z,22.49
2022-09-06T12:40:56.415Z,23.43
2022-09-06T12:43:22.972Z,24.69
2022-09-06T12:45:51.326Z,25.94
2022-09-06T12:48:31.248Z,26.73
2022-09-06T12:51:04.923Z,26.63
2022-09-06T12:53:32.156Z,26.97
2022-09-06T12:56:03.407Z,26.90
2022-09-06T12:58:30.173Z,27.29
2022-09-06T13:01:03.650Z,27.46
2022-09-06T13:03:35.179Z,28.04
2022-09-06T13:06:04.375Z,28.14
2022-09-06T13:08:36.982Z,28.17
2022-09-06T13:11:05.186Z,27.93
2022-09-06T13:13:31.765Z,27.79
2022-09-06T13:15:58.417Z,27.13
2022-09-06T13:18:31.079Z,28.17
2022-09-06T13:21:01.765Z,28.01
2022-09-06T13:23:28.580Z,28.04
2022-09-06T13:25:56.014Z,27.48
2022-09-06T13:28:28.422Z,27.85
2022-09-06T13:31:14.363Z,27.36
2022-09-06T13:33:41.900Z,27.18
2022-09-06T13:36:18.364Z,27.14
2022-09-06T13:38:45.866Z,27.63
2022-09-06T13:41:21.342Z,27.99
2022-09-06T13:43:48.594Z,28.11
2022-09-06T13:46:15.423Z,27.98
2022-09-06T13:48:44.686Z,28.23
2022-09-06T13:51:11.442Z,28.29
2022-09-06T13:53:39.104Z,28.46
2022-09-06T13:56:08.798Z,28.41
2022-09-06T13:58:36.049Z,28.67
2022-09-06T14:01:05.134Z,28.12
2022-09-06T14:03:32.506Z,28.90
2022-09-06T14:06:00.279Z,28.63
2022-09-06T14:08:43.411Z,28.91
2022-09-06T14:11:14.900Z,28.78
2022-09-06T14:13:41.778Z,29.29
2022-09-06T14:16:08.473Z,28.96
2022-09-06T14:18:35.050Z,29.61
2022-09-06T14:21:01.988Z,29.58
2022-09-06T14:23:28.591Z,29.56
2022-09-06T14:25:55.682Z,29.53
2022-09-06T14:28:22.387Z,29.74
2022-09-06T14:30:48.916Z,29.39
2022-09-06T14:33:15.452Z,29.85
2022-09-06T14:35:42.109Z,29.87
2022-09-06T14:38:08.887Z,29.98
2022-09-06T14:40:36.778Z,30.40
2022-09-06T14:43:04.089Z,30.28
2022-09-06T14:45:30.820Z,30.98
2022-09-06T14:47:57.378Z,31.03
2022-09-06T14:50:24.017Z,29.90
2022-09-06T14:52:50.612Z,30.54
2022-09-06T14:55:17.213Z,29.70
2022-09-06T14:57:43.806Z,30.92
2022-09-06T15:00:11.240Z,31.23
2022-09-06T15:02:38.136Z,31.74
2022-09-06T15:05:05.935Z,31.11
2022-09-06T15:07:32.687Z,31.60
2022-09-06T15:09:59.265Z,31.88
2022-09-06T15:12:25.935Z,31.82
2022-09-06T15:14:52.505Z,33.14
2022-09-06T15:17:19.061Z,33.69
2022-09-06T15:19:45.846Z,34.43
2022-09-06T15:22:12.478Z,34.56
2022-09-06T15:24:40.348Z,35.21
2022-09-06T15:27:06.973Z,35.87
2022-09-06T15:29:33.630Z,36.23
2022-09-06T15:32:00.461Z,36.70
2022-09-06T15:34:27.053Z,36.41
2022-09-06T15:36:53.679Z,36.00
2022-09-06T15:39:20.666Z,36.67
2022-09-06T15:41:49.974Z,36.69
2022-09-06T15:44:19.792Z,37.57
2022-09-06T15:46:46.428Z,38.15
2022-09-06T15:49:15.083Z,37.67
2022-09-06T15:51:42.184Z,37.93
2022-09-06T15:54:09.574Z,37.40
2022-09-06T15:56:36.653Z,36.67
2022-09-06T15:59:03.476Z,37.32
2022-09-06T16:01:30.136Z,37.29
2022-09-06T16:04:03.692Z,37.24
2022-09-06T16:06:31.866Z,35.87
2022-09-06T16:08:59.894Z,36.93
2022-09-06T16:11:27.556Z,36.39
2022-09-06T16:13:54.514Z,36.15
2022-09-06T16:16:22.597Z,36.14
2022-09-06T16:18:49.485Z,36.57
2022-09-06T16:21:21.624Z,38.50
2022-09-06T16:23:53.553Z,37.74
2022-09-06T16:26:21.842Z,38.91
2022-09-06T16:28:50.069Z,40.21
2022-09-06T16:31:17.263Z,40.58
2022-09-06T16:33:45.489Z,40.37
2022-09-06T16:36:12.964Z,40.08
2022-09-06T16:38:39.811Z,40.19
2022-09-06T16:41:14.588Z,40.89
2022-09-06T16:43:41.713Z,41.69
2022-09-06T16:46:08.629Z,41.62
2022-09-06T16:48:35.397Z,41.76
2022-09-06T16:51:28.429Z,42.02
2022-09-06T16:53:55.251Z,42.33
2022-09-06T16:56:23.436Z,42.13
2022-09-06T16:58:54.391Z,41.97
2022-09-06T17:01:21.189Z,41.92
2022-09-06T17:03:48.122Z,41.66
2022-09-06T17:06:14.921Z,41.82
2022-09-06T17:08:41.719Z,42.59
2022-09-06T17:11:09.728Z,41.72
2022-09-06T17:13:36.848Z,41.98
2022-09-06T17:16:22.498Z,42.68
2022-09-06T17:18:49.892Z,43.77
2022-09-06T17:21:16.478Z,44.70
2022-09-06T17:23:43.570Z,46.47
2022-09-06T17:26:10.509Z,45.98
2022-09-06T17:28:38.831Z,46.97
2022-09-06T17:31:05.931Z,47.24
2022-09-06T17:33:33.482Z,46.44
2022-09-06T17:36:13.321Z,47.03
2022-09-06T17:38:40.539Z,47.50
2022-09-06T17:41:08.251Z,48.30
2022-09-06T17:43:37.821Z,49.15
2022-09-06T17:46:04.838Z,49.25
2022-09-06T17:48:31.639Z,48.44
2022-09-06T17:51:04.510Z,48.27
2022-09-06T17:53:31.899Z,50.10
2022-09-06T17:55:58.495Z,50.35
2022-09-06T17:58:25.172Z,50.17
2022-09-06T18:00:53.015Z,50.90
2022-09-06T18:03:19.658Z,50.73
2022-09-06T18:05:46.187Z,50.55
2022-09-06T18:08:12.962Z,50.36
2022-09-06T18:10:39.884Z,50.36
2022-09-06T18:13:06.502Z,50.81
2022-09-06T18:15:38.248Z,51.65
2022-09-06T18:18:04.929Z,51.98
2022-09-06T18:20:31.496Z,52.51
2022-09-06T18:22:58.377Z,51.87
2022-09-06T18:25:25.415Z,49.68
2022-09-06T18:27:52.296Z,47.47
2022-09-06T18:30:18.943Z,46.69
2022-09-06T18:32:45.578Z,46.19
2022-09-06T18:35:14.521Z,46.23
2022-09-06T18:37:41.100Z,46.39
2022-09-06T18:40:08.036Z,46.19
2022-09-06T18:42:34.779Z,45.69
2022-09-06T18:45:01.535Z,45.31
2022-09-06T18:47:28.190Z,43.34
2022-09-06T18:49:54.796Z,43.98
2022-09-06T18:52:21.353Z,43.46
2022-09-06T18:54:49.479Z,43.08
2022-09-06T18:57:17.191Z,43.29
2022-09-06T18:59:44.657Z,43.52
2022-09-06T19:02:11.570Z,43.10
2022-09-06T19:04:38.408Z,43.25
2022-09-06T19:07:05.109Z,43.23
2022-09-06T19:09:31.743Z,42.63
2022-09-06T19:11:58.265Z,41.92
2022-09-06T19:14:25.357Z,42.39
2022-09-06T19:16:54.848Z,42.01
2022-09-06T19:19:22.704Z,41.56
2022-09-06T19:21:49.644Z,41.53
2022-09-06T19:24:16.500Z,41.59
2022-09-06T19:26:45.222Z,41.60
2022-09-06T19:29:16.077Z,41.49
2022-09-06T19:31:43.232Z,41.79
2022-09-06T19:34:13.553Z,41.98
2022-09-06T19:36:40.217Z,41.54
2022-09-06T19:39:08.630Z,40.88
2022-09-06T19:41:39.360Z,41.07
2022-09-06T19:44:08.667Z,40.86
2022-09-06T19:46:35.649Z,41.10
2022-09-06T19:49:08.243Z,40.90
2022-09-06T19:51:36.361Z,40.88
2022-09-06T19:54:03.573Z,41.02
2022-09-06T19:56:35.854Z,41.83
2022-09-06T19:59:07.188Z,41.37
2022-09-06T20:01:35.004Z,41.91
2022-09-06T20:04:02.963Z,41.60
2022-09-06T20:06:30.413Z,42.07
2022-09-06T20:08:57.981Z,42.04
2022-09-06T20:11:25.990Z,42.36
2022-09-06T20:13:52.919Z,42.47
2022-09-06T20:16:20.959Z,42.40
2022-09-06T20:18:48.423Z,42.67
2022-09-06T20:21:15.131Z,43.37
2022-09-06T20:23:42.054Z,43.54
2022-09-06T20:26:10.188Z,43.72
2022-09-06T20:28:37.184Z,43.58
2022-09-06T20:31:08.532Z,43.26
2022-09-06T20:33:35.882Z,43.70
2022-09-06T20:36:03.965Z,43.80
2022-09-06T20:38:35.261Z,44.54
2022-09-06T20:41:09.240Z,43.90
2022-09-06T20:43:36.864Z,43.90
2022-09-06T20:46:04.383Z,44.01
2022-09-06T20:48:32.703Z,44.07
2022-09-06T20:51:00.379Z,43.94
2022-09-06T20:53:27.222Z,44.67
2022-09-06T20:55:57.885Z,44.60
2022-09-06T20:58:24.693Z,45.18
2022-09-06T21:00:52.181Z,44.85
2022-09-06T21:03:19.003Z,44.60
2022-09-06T21:05:45.671Z,44.74
2022-09-06T21:08:12.331Z,45.03
2022-09-06T21:10:38.871Z,44.93
2022-09-06T21:13:05.456Z,45.35
2022-09-06T21:15:36.542Z,46.00
2022-09-06T21:18:04.657Z,45.46
2022-09-06T21:20:31.304Z,46.10
2022-09-06T21:22:57.875Z,45.83
2022-09-06T21:25:24.538Z,46.12
2022-09-06T21:27:55.564Z,46.13
2022-09-06T21:30:22.407Z,45.77
2022-09-06T21:32:49.113Z,46.32
2022-09-06T21:35:15.855Z,46.36
2022-09-06T21:37:42.425Z,46.95
2022-09-06T21:40:09.374Z,46.45
2022-09-06T21:42:36.029Z,46.28
2022-09-06T21:45:02.796Z,46.90
2022-09-06T21:47:31.176Z,47.19
2022-09-06T21:49:57.835Z,46.80
2022-09-06T21:52:24.431Z,46.98
2022-09-06T21:54:51.017Z,47.75
2022-09-06T21:57:18.032Z,47.67
2022-09-06T21:59:44.845Z,47.47
2022-09-06T22:02:11.842Z,47.97
2022-09-06T22:04:38.534Z,47.63
2022-09-06T22:07:05.122Z,48.05
2022-09-06T22:09:32.001Z,47.79
2022-09-06T22:11:58.899Z,48.28
2022-09-06T22:14:25.453Z,48.26
2022-09-06T22:16:53.459Z,48.44
2022-09-06T22:19:22.524Z,48.35
2022-09-06T22:21:51.931Z,48.77
2022-09-06T22:24:18.634Z,49.25
2022-09-06T22:26:45.548Z,49.23
2022-09-06T22:29:13.557Z,48.94
2022-09-06T22:31:43.722Z,49.20
2022-09-06T22:34:10.653Z,49.12
2022-09-06T22:36:37.266Z,48.96
2022-09-06T22:39:04.020Z,48.70
2022-09-06T22:41:31.446Z,49.13
2022-09-06T22:44:01.596Z,48.52
2022-09-06T22:46:28.668Z,48.58
2022-09-06T22:48:55.548Z,49.02
2022-09-06T22:51:22.070Z,48.65
2022-09-06T22:53:48.674Z,48.73
2022-09-06T22:56:15.336Z,49.03
2022-09-06T22:58:41.946Z,48.73
2022-09-06T23:01:09.584Z,48.73
2022-09-06T23:03:36.849Z,48.24
2022-09-06T23:06:03.945Z,48.17
2022-09-06T23:08:30.909Z,48.01
2022-09-06T23:10:57.569Z,48.04
2022-09-06T23:13:24.169Z,48.37
2022-09-06T23:15:50.775Z,48.71
2022-09-06T23:18:17.379Z,49.71
2022-09-06T23:20:44.033Z,49.68
2022-09-06T23:23:10.700Z,49.87
2022-09-06T23:25:38.731Z,50.13
2022-09-06T23:28:05.456Z,49.80
2022-09-06T23:30:32.096Z,49.93
2022-09-06T23:32:58.645Z,50.37
2022-09-06T23:35:25.155Z,51.00
2022-09-06T23:37:52.301Z,51.39
2022-09-06T23:40:18.974Z,51.49
2022-09-06T23:42:45.687Z,51.37
2022-09-06T23:45:12.208Z,51.69
2022-09-06T23:47:38.841Z,51.72
2022-09-06T23:50:06.765Z,50.96
2022-09-06T23:52:33.325Z,50.90
2022-09-06T23:54:59.865Z,50.53
2022-09-06T23:57:26.422Z,50.31
2022-09-06T23:59:52.890Z,51.05
